sensor_id;sensor_type;location;lat;lon;timestamp;pressure;altitude;pressure_sealevel;temperature;humidity
29935;BME280;19905;53.370;-6.314;2023-09-19T00:00:47;99719.41;;;11.58;100.00
29935;BME280;19905;53.370;-6.314;2023-09-19T00:03:16;99726.50;;;11.58;100.00
29935;BME280;19905;53.370;-6.314;2023-09-19T00:05:45;99729.31;;;11.56;100.00
29935;BME280;19905;53.370;-6.314;2023-09-19T00:08:14;99723.03;;;11.57;100.00
29935;BME280;19905;53.370;-6.314;2023-09-19T00:10:45;99734.97;;;11.61;100.00
29935;BME280;19905;53.370;-6.314;2023-09-19T00:13:15;99724.03;;;11.56;100.00
29935;BME280;19905;53.370;-6.314;2023-09-19T00:15:47;99721.53;;;11.55;100.00
29935;BME280;19905;53.370;-6.314;2023-09-19T00:18:20;99724.19;;;11.55;100.00
29935;BME280;19905;53.370;-6.314;2023-09-19T00:20:50;99717.78;;;11.48;100.00
29935;BME280;19905;53.370;-6.314;2023-09-19T00:23:19;99731.47;;;11.43;100.00
29935;BME280;19905;53.370;-6.314;2023-09-19T00:25:50;99702.22;;;11.44;100.00
29935;BME280;19905;53.370;-6.314;2023-09-19T00:28:19;99725.63;;;11.39;100.00
29935;BME280;19905;53.370;-6.314;2023-09-19T00:30:49;99719.66;;;11.37;100.00
29935;BME280;19905;53.370;-6.314;2023-09-19T00:33:18;99723.28;;;11.36;100.00
29935;BME280;19905;53.370;-6.314;2023-09-19T00:35:48;99738.47;;;11.34;100.00
29935;BME280;19905;53.370;-6.314;2023-09-19T00:38:18;99734.81;;;11.35;100.00
29935;BME280;19905;53.370;-6.314;2023-09-19T00:40:52;99735.53;;;11.37;100.00
29935;BME280;19905;53.370;-6.314;2023-09-19T00:43:24;99733.88;;;11.36;100.00
29935;BME280;19905;53.370;-6.314;2023-09-19T00:45:54;99724.56;;;11.32;100.00
29935;BME280;19905;53.370;-6.314;2023-09-19T00:48:24;99738.22;;;11.28;100.00
29935;BME280;19905;53.370;-6.314;2023-09-19T00:50:55;99744.91;;;11.22;100.00
29935;BME280;19905;53.370;-6.314;2023-09-19T00:53:26;99737.94;;;11.21;100.00
29935;BME280;19905;53.370;-6.314;2023-09-19T00:55:56;99741.84;;;11.17;100.00
29935;BME280;19905;53.370;-6.314;2023-09-19T00:58:25;99742.16;;;11.14;100.00
29935;BME280;19905;53.370;-6.314;2023-09-19T01:00:59;99741.34;;;11.13;100.00
29935;BME280;19905;53.370;-6.314;2023-09-19T01:03:28;99749.38;;;11.12;100.00
29935;BME280;19905;53.370;-6.314;2023-09-19T01:05:59;99738.53;;;11.15;100.00
29935;BME280;19905;53.370;-6.314;2023-09-19T01:08:29;99734.09;;;11.15;100.00
29935;BME280;19905;53.370;-6.314;2023-09-19T01:11:09;99728.66;;;11.17;100.00
29935;BME280;19905;53.370;-6.314;2023-09-19T01:13:55;99728.66;;;11.17;100.00
29935;BME280;19905;53.370;-6.314;2023-09-19T01:16:34;99721.69;;;11.16;100.00
29935;BME280;19905;53.370;-6.314;2023-09-19T01:22:13;99710.97;;;11.27;100.00
29935;BME280;19905;53.370;-6.314;2023-09-19T01:25:24;99697.59;;;11.29;100.00
29935;BME280;19905;53.370;-6.314;2023-09-19T01:28:16;99685.91;;;11.22;100.00
29935;BME280;19905;53.370;-6.314;2023-09-19T01:30:53;99686.22;;;11.18;100.00
29935;BME280;19905;53.370;-6.314;2023-09-19T01:33:24;99669.38;;;11.19;100.00
29935;BME280;19905;53.370;-6.314;2023-09-19T01:35:56;99668.94;;;11.24;100.00
29935;BME280;19905;53.370;-6.314;2023-09-19T01:38:25;99657.97;;;11.19;100.00
29935;BME280;19905;53.370;-6.314;2023-09-19T01:41:00;99652.31;;;11.14;100.00
29935;BME280;19905;53.370;-6.314;2023-09-19T01:43:36;99648.13;;;11.11;100.00
29935;BME280;19905;53.370;-6.314;2023-09-19T01:46:13;99637.84;;;11.08;100.00
29935;BME280;19905;53.370;-6.314;2023-09-19T01:48:57;99642.75;;;11.03;100.00
29935;BME280;19905;53.370;-6.314;2023-09-19T01:51:34;99636.19;;;11.07;100.00
29935;BME280;19905;53.370;-6.314;2023-09-19T01:54:09;99628.41;;;11.06;100.00
29935;BME280;19905;53.370;-6.314;2023-09-19T01:56:48;99618.50;;;11.08;100.00
29935;BME280;19905;53.370;-6.314;2023-09-19T01:59:24;99616.25;;;11.13;100.00
29935;BME280;19905;53.370;-6.314;2023-09-19T02:01:57;99605.41;;;11.16;100.00
29935;BME280;19905;53.370;-6.314;2023-09-19T02:04:27;99605.50;;;11.24;100.00
29935;BME280;19905;53.370;-6.314;2023-09-19T02:06:55;99596.44;;;11.27;100.00
29935;BME280;19905;53.370;-6.314;2023-09-19T02:09:25;99600.06;;;11.26;100.00
29935;BME280;19905;53.370;-6.314;2023-09-19T02:11:54;99599.06;;;11.27;100.00
29935;BME280;19905;53.370;-6.314;2023-09-19T02:14:23;99591.00;;;11.28;100.00
29935;BME280;19905;53.370;-6.314;2023-09-19T02:16:52;99590.69;;;11.31;100.00
29935;BME280;19905;53.370;-6.314;2023-09-19T02:19:22;99583.47;;;11.33;100.00
29935;BME280;19905;53.370;-6.314;2023-09-19T02:21:51;99575.38;;;11.35;100.00
29935;BME280;19905;53.370;-6.314;2023-09-19T02:24:20;99570.00;;;11.44;100.00
29935;BME280;19905;53.370;-6.314;2023-09-19T02:26:48;99554.69;;;11.48;100.00
29935;BME280;19905;53.370;-6.314;2023-09-19T02:29:17;99548.03;;;11.44;100.00
29935;BME280;19905;53.370;-6.314;2023-09-19T02:31:45;99538.34;;;11.53;100.00
29935;BME280;19905;53.370;-6.314;2023-09-19T02:34:14;99527.03;;;11.60;100.00
29935;BME280;19905;53.370;-6.314;2023-09-19T02:36:45;99519.38;;;11.57;100.00
29935;BME280;19905;53.370;-6.314;2023-09-19T02:39:14;99509.34;;;11.61;100.00
29935;BME280;19905;53.370;-6.314;2023-09-19T02:41:43;99507.97;;;11.57;100.00
29935;BME280;19905;53.370;-6.314;2023-09-19T02:44:13;99488.00;;;11.62;100.00
29935;BME280;19905;53.370;-6.314;2023-09-19T02:46:42;99485.25;;;11.64;100.00
29935;BME280;19905;53.370;-6.314;2023-09-19T02:49:11;99461.09;;;11.67;100.00
29935;BME280;19905;53.370;-6.314;2023-09-19T02:51:40;99459.16;;;11.69;100.00
29935;BME280;19905;53.370;-6.314;2023-09-19T02:54:12;99449.75;;;11.75;100.00
29935;BME280;19905;53.370;-6.314;2023-09-19T02:56:40;99432.88;;;11.76;100.00
29935;BME280;19905;53.370;-6.314;2023-09-19T02:59:09;99423.81;;;11.78;100.00
29935;BME280;19905;53.370;-6.314;2023-09-19T03:01:38;99415.63;;;11.89;100.00
29935;BME280;19905;53.370;-6.314;2023-09-19T03:04:07;99400.28;;;11.93;100.00
29935;BME280;19905;53.370;-6.314;2023-09-19T03:06:38;99387.88;;;11.93;100.00
29935;BME280;19905;53.370;-6.314;2023-09-19T03:09:07;99387.22;;;12.00;100.00
29935;BME280;19905;53.370;-6.314;2023-09-19T03:11:42;99368.88;;;11.98;100.00
29935;BME280;19905;53.370;-6.314;2023-09-19T03:14:13;99356.66;;;11.97;100.00
29935;BME280;19905;53.370;-6.314;2023-09-19T03:16:42;99350.66;;;11.95;100.00
29935;BME280;19905;53.370;-6.314;2023-09-19T03:19:11;99341.25;;;11.92;100.00
29935;BME280;19905;53.370;-6.314;2023-09-19T03:21:42;99328.00;;;11.92;100.00
29935;BME280;19905;53.370;-6.314;2023-09-19T03:24:11;99328.31;;;11.89;100.00
29935;BME280;19905;53.370;-6.314;2023-09-19T03:26:41;99320.06;;;11.92;100.00
29935;BME280;19905;53.370;-6.314;2023-09-19T03:29:10;99295.25;;;11.93;100.00
29935;BME280;19905;53.370;-6.314;2023-09-19T03:31:40;99287.97;;;11.95;100.00
29935;BME280;19905;53.370;-6.314;2023-09-19T03:34:09;99274.25;;;11.92;100.00
29935;BME280;19905;53.370;-6.314;2023-09-19T03:36:38;99273.78;;;11.97;100.00
29935;BME280;19905;53.370;-6.314;2023-09-19T03:39:07;99251.63;;;11.98;100.00
29935;BME280;19905;53.370;-6.314;2023-09-19T03:41:37;99241.69;;;12.00;100.00
29935;BME280;19905;53.370;-6.314;2023-09-19T03:44:08;99238.56;;;12.04;100.00
29935;BME280;19905;53.370;-6.314;2023-09-19T03:46:36;99220.53;;;12.08;100.00
29935;BME280;19905;53.370;-6.314;2023-09-19T03:49:06;99221.69;;;12.13;100.00
29935;BME280;19905;53.370;-6.314;2023-09-19T03:51:35;99216.91;;;12.17;100.00
29935;BME280;19905;53.370;-6.314;2023-09-19T03:54:04;99206.16;;;12.27;100.00
29935;BME280;19905;53.370;-6.314;2023-09-19T03:56:33;99206.47;;;12.32;100.00
29935;BME280;19905;53.370;-6.314;2023-09-19T03:59:01;99191.59;;;12.47;100.00
29935;BME280;19905;53.370;-6.314;2023-09-19T04:01:32;99178.19;;;12.57;100.00
29935;BME280;19905;53.370;-6.314;2023-09-19T04:04:00;99164.75;;;12.66;100.00
29935;BME280;19905;53.370;-6.314;2023-09-19T04:06:35;99126.50;;;12.69;100.00
29935;BME280;19905;53.370;-6.314;2023-09-19T04:09:04;99143.03;;;12.79;100.00
29935;BME280;19905;53.370;-6.314;2023-09-19T04:11:34;99131.75;;;12.93;100.00
29935;BME280;19905;53.370;-6.314;2023-09-19T04:14:04;99132.75;;;12.92;100.00
29935;BME280;19905;53.370;-6.314;2023-09-19T04:16:34;99098.41;;;12.99;100.00
29935;BME280;19905;53.370;-6.314;2023-09-19T04:19:03;99108.69;;;13.02;100.00
29935;BME280;19905;53.370;-6.314;2023-09-19T04:21:32;99092.06;;;13.08;100.00
29935;BME280;19905;53.370;-6.314;2023-09-19T04:24:01;99094.19;;;13.21;100.00
29935;BME280;19905;53.370;-6.314;2023-09-19T04:26:31;99067.00;;;13.19;100.00
29935;BME280;19905;53.370;-6.314;2023-09-19T04:29:00;99063.84;;;13.23;100.00
29935;BME280;19905;53.370;-6.314;2023-09-19T04:31:31;99046.88;;;13.33;100.00
29935;BME280;19905;53.370;-6.314;2023-09-19T04:34:02;99029.63;;;13.37;100.00
29935;BME280;19905;53.370;-6.314;2023-09-19T04:36:31;99026.09;;;13.44;100.00
29935;BME280;19905;53.370;-6.314;2023-09-19T04:39:02;99072.31;;;13.50;100.00
29935;BME280;19905;53.370;-6.314;2023-09-19T04:41:34;99008.59;;;13.58;100.00
29935;BME280;19905;53.370;-6.314;2023-09-19T04:44:05;99004.78;;;13.61;100.00
29935;BME280;19905;53.370;-6.314;2023-09-19T04:46:34;99023.63;;;13.66;100.00
29935;BME280;19905;53.370;-6.314;2023-09-19T04:49:07;98996.31;;;13.80;100.00
29935;BME280;19905;53.370;-6.314;2023-09-19T04:51:36;99003.72;;;13.85;100.00
29935;BME280;19905;53.370;-6.314;2023-09-19T04:54:05;99013.00;;;13.89;100.00
29935;BME280;19905;53.370;-6.314;2023-09-19T04:56:35;98984.22;;;13.92;100.00
29935;BME280;19905;53.370;-6.314;2023-09-19T04:59:03;98983.25;;;13.93;100.00
29935;BME280;19905;53.370;-6.314;2023-09-19T05:01:32;98963.94;;;13.99;100.00
29935;BME280;19905;53.370;-6.314;2023-09-19T05:04:01;98985.63;;;14.03;100.00
29935;BME280;19905;53.370;-6.314;2023-09-19T05:06:34;98966.88;;;14.05;100.00
29935;BME280;19905;53.370;-6.314;2023-09-19T05:09:04;98985.25;;;14.06;100.00
29935;BME280;19905;53.370;-6.314;2023-09-19T05:11:33;99000.00;;;14.09;100.00
29935;BME280;19905;53.370;-6.314;2023-09-19T05:14:03;98983.81;;;14.04;100.00
29935;BME280;19905;53.370;-6.314;2023-09-19T05:16:33;98982.25;;;14.09;100.00
29935;BME280;19905;53.370;-6.314;2023-09-19T05:19:03;98955.88;;;14.22;100.00
29935;BME280;19905;53.370;-6.314;2023-09-19T05:21:33;98986.84;;;14.30;100.00
29935;BME280;19905;53.370;-6.314;2023-09-19T05:24:02;98930.94;;;14.38;100.00
29935;BME280;19905;53.370;-6.314;2023-09-19T05:26:31;98930.94;;;14.38;100.00
29935;BME280;19905;53.370;-6.314;2023-09-19T05:29:00;98936.91;;;14.40;100.00
29935;BME280;19905;53.370;-6.314;2023-09-19T05:31:30;98936.91;;;14.40;100.00
29935;BME280;19905;53.370;-6.314;2023-09-19T05:33:59;98939.56;;;14.40;100.00
29935;BME280;19905;53.370;-6.314;2023-09-19T05:36:28;98956.97;;;14.43;100.00
29935;BME280;19905;53.370;-6.314;2023-09-19T05:39:00;98937.19;;;14.45;100.00
29935;BME280;19905;53.370;-6.314;2023-09-19T05:41:30;98936.09;;;14.55;100.00
29935;BME280;19905;53.370;-6.314;2023-09-19T05:43:58;98929.31;;;14.67;100.00
29935;BME280;19905;53.370;-6.314;2023-09-19T05:46:30;98935.03;;;14.70;100.00
29935;BME280;19905;53.370;-6.314;2023-09-19T05:48:58;98937.69;;;14.70;100.00
29935;BME280;19905;53.370;-6.314;2023-09-19T05:51:27;98917.09;;;14.72;100.00
29935;BME280;19905;53.370;-6.314;2023-09-19T05:53:56;98904.72;;;14.65;100.00
29935;BME280;19905;53.370;-6.314;2023-09-19T05:56:26;98901.44;;;14.63;100.00
29935;BME280;19905;53.370;-6.314;2023-09-19T05:59:02;98905.00;;;14.70;100.00
29935;BME280;19905;53.370;-6.314;2023-09-19T06:01:31;98951.19;;;14.69;100.00
29935;BME280;19905;53.370;-6.314;2023-09-19T06:04:01;98927.53;;;14.74;100.00
29935;BME280;19905;53.370;-6.314;2023-09-19T06:06:31;98932.38;;;14.85;100.00
29935;BME280;19905;53.370;-6.314;2023-09-19T06:09:01;98931.72;;;14.83;100.00
29935;BME280;19905;53.370;-6.314;2023-09-19T06:11:32;98919.69;;;14.87;100.00
29935;BME280;19905;53.370;-6.314;2023-09-19T06:14:02;98931.59;;;14.91;100.00
29935;BME280;19905;53.370;-6.314;2023-09-19T06:16:31;98914.00;;;14.90;100.00
29935;BME280;19905;53.370;-6.314;2023-09-19T06:19:00;98968.25;;;14.96;100.00
29935;BME280;19905;53.370;-6.314;2023-09-19T06:21:29;98925.91;;;14.94;100.00
29935;BME280;19905;53.370;-6.314;2023-09-19T06:23:59;98931.50;;;14.99;100.00
29935;BME280;19905;53.370;-6.314;2023-09-19T06:26:27;98923.63;;;14.91;100.00
29935;BME280;19905;53.370;-6.314;2023-09-19T06:28:58;98935.72;;;14.94;100.00
29935;BME280;19905;53.370;-6.314;2023-09-19T06:31:27;98922.25;;;14.95;100.00
29935;BME280;19905;53.370;-6.314;2023-09-19T06:33:55;98928.00;;;14.99;100.00
29935;BME280;19905;53.370;-6.314;2023-09-19T06:36:25;98937.44;;;15.02;100.00
29935;BME280;19905;53.370;-6.314;2023-09-19T06:38:54;98927.50;;;15.10;100.00
29935;BME280;19905;53.370;-6.314;2023-09-19T06:41:22;98943.53;;;15.17;100.00
29935;BME280;19905;53.370;-6.314;2023-09-19T06:43:52;98943.34;;;15.18;100.00
29935;BME280;19905;53.370;-6.314;2023-09-19T06:46:23;98925.16;;;15.22;100.00
29935;BME280;19905;53.370;-6.314;2023-09-19T06:48:52;98930.09;;;15.25;100.00
29935;BME280;19905;53.370;-6.314;2023-09-19T06:51:21;98925.22;;;15.29;100.00
29935;BME280;19905;53.370;-6.314;2023-09-19T06:53:49;98928.06;;;15.27;100.00
29935;BME280;19905;53.370;-6.314;2023-09-19T06:56:20;98940.59;;;15.33;100.00
29935;BME280;19905;53.370;-6.314;2023-09-19T06:58:52;98938.31;;;15.30;100.00
29935;BME280;19905;53.370;-6.314;2023-09-19T07:01:23;98939.56;;;15.34;100.00
29935;BME280;19905;53.370;-6.314;2023-09-19T07:03:52;98941.63;;;15.32;100.00
29935;BME280;19905;53.370;-6.314;2023-09-19T07:06:21;98967.78;;;15.29;100.00
29935;BME280;19905;53.370;-6.314;2023-09-19T07:08:49;98976.97;;;15.26;100.00
29935;BME280;19905;53.370;-6.314;2023-09-19T07:11:19;98965.88;;;15.22;100.00
29935;BME280;19905;53.370;-6.314;2023-09-19T07:13:48;99006.22;;;15.26;100.00
29935;BME280;19905;53.370;-6.314;2023-09-19T07:16:17;98973.34;;;15.34;100.00
29935;BME280;19905;53.370;-6.314;2023-09-19T07:18:56;98972.59;;;15.40;100.00
29935;BME280;19905;53.370;-6.314;2023-09-19T07:21:25;98956.44;;;15.41;100.00
29935;BME280;19905;53.370;-6.314;2023-09-19T07:23:54;98990.66;;;15.44;100.00
29935;BME280;19905;53.370;-6.314;2023-09-19T07:26:23;98992.53;;;15.50;100.00
29935;BME280;19905;53.370;-6.314;2023-09-19T07:28:52;98996.84;;;15.51;100.00
29935;BME280;19905;53.370;-6.314;2023-09-19T07:31:23;99000.56;;;15.57;100.00
29935;BME280;19905;53.370;-6.314;2023-09-19T07:33:52;98991.84;;;15.63;100.00
29935;BME280;19905;53.370;-6.314;2023-09-19T07:36:23;99009.28;;;15.66;100.00
29935;BME280;19905;53.370;-6.314;2023-09-19T07:38:53;98987.63;;;15.69;100.00
29935;BME280;19905;53.370;-6.314;2023-09-19T07:41:42;98987.25;;;15.72;100.00
29935;BME280;19905;53.370;-6.314;2023-09-19T07:44:11;98999.28;;;15.68;100.00
29935;BME280;19905;53.370;-6.314;2023-09-19T07:46:40;99021.41;;;15.68;100.00
29935;BME280;19905;53.370;-6.314;2023-09-19T07:49:08;99015.88;;;15.70;100.00
29935;BME280;19905;53.370;-6.314;2023-09-19T07:51:39;99032.53;;;15.79;100.00
29935;BME280;19905;53.370;-6.314;2023-09-19T07:54:09;99007.38;;;15.81;100.00
29935;BME280;19905;53.370;-6.314;2023-09-19T07:56:37;99029.66;;;15.80;100.00
29935;BME280;19905;53.370;-6.314;2023-09-19T07:59:06;99043.75;;;15.74;100.00
29935;BME280;19905;53.370;-6.314;2023-09-19T08:01:35;99028.44;;;15.76;100.00
29935;BME280;19905;53.370;-6.314;2023-09-19T08:04:04;99039.09;;;15.76;100.00
29935;BME280;19905;53.370;-6.314;2023-09-19T08:06:33;99036.66;;;15.81;100.00
29935;BME280;19905;53.370;-6.314;2023-09-19T08:09:03;99067.22;;;15.85;100.00
29935;BME280;19905;53.370;-6.314;2023-09-19T08:11:35;99042.94;;;15.95;100.00
29935;BME280;19905;53.370;-6.314;2023-09-19T08:14:03;99031.94;;;16.05;100.00
29935;BME280;19905;53.370;-6.314;2023-09-19T08:16:34;99026.88;;;16.16;100.00
29935;BME280;19905;53.370;-6.314;2023-09-19T08:19:03;99053.75;;;16.21;100.00
29935;BME280;19905;53.370;-6.314;2023-09-19T08:21:33;99022.22;;;16.25;100.00
29935;BME280;19905;53.370;-6.314;2023-09-19T08:24:04;99010.63;;;16.39;100.00
29935;BME280;19905;53.370;-6.314;2023-09-19T08:26:34;98999.22;;;16.52;100.00
29935;BME280;19905;53.370;-6.314;2023-09-19T08:29:05;99008.31;;;16.64;100.00
29935;BME280;19905;53.370;-6.314;2023-09-19T08:31:34;99000.75;;;16.68;100.00
29935;BME280;19905;53.370;-6.314;2023-09-19T08:34:02;99002.00;;;16.72;100.00
29935;BME280;19905;53.370;-6.314;2023-09-19T08:36:31;98987.91;;;16.85;100.00
29935;BME280;19905;53.370;-6.314;2023-09-19T08:39:00;98994.88;;;16.86;100.00
29935;BME280;19905;53.370;-6.314;2023-09-19T08:41:31;98988.13;;;16.90;100.00
29935;BME280;19905;53.370;-6.314;2023-09-19T08:44:00;98969.69;;;16.95;100.00
29935;BME280;19905;53.370;-6.314;2023-09-19T08:46:34;98963.53;;;16.94;100.00
29935;BME280;19905;53.370;-6.314;2023-09-19T08:49:11;98964.38;;;17.01;100.00
29935;BME280;19905;53.370;-6.314;2023-09-19T08:51:45;99012.00;;;17.05;100.00
29935;BME280;19905;53.370;-6.314;2023-09-19T08:54:21;98985.75;;;17.15;100.00
29935;BME280;19905;53.370;-6.314;2023-09-19T08:56:53;98978.38;;;17.23;100.00
29935;BME280;19905;53.370;-6.314;2023-09-19T08:59:22;98984.34;;;17.19;100.00
29935;BME280;19905;53.370;-6.314;2023-09-19T09:01:55;99013.03;;;17.17;100.00
29935;BME280;19905;53.370;-6.314;2023-09-19T09:04:24;99014.06;;;17.09;100.00
29935;BME280;19905;53.370;-6.314;2023-09-19T09:06:55;99037.22;;;17.02;100.00
29935;BME280;19905;53.370;-6.314;2023-09-19T09:09:25;99024.44;;;16.84;100.00
29935;BME280;19905;53.370;-6.314;2023-09-19T09:11:57;99043.00;;;16.71;100.00
29935;BME280;19905;53.370;-6.314;2023-09-19T09:14:27;99066.53;;;16.61;100.00
29935;BME280;19905;53.370;-6.314;2023-09-19T09:16:56;99067.72;;;16.51;100.00
29935;BME280;19905;53.370;-6.314;2023-09-19T09:19:26;99073.66;;;16.53;100.00
29935;BME280;19905;53.370;-6.314;2023-09-19T09:22:06;99083.94;;;16.57;100.00
29935;BME280;19905;53.370;-6.314;2023-09-19T09:24:35;99094.97;;;16.53;100.00
29935;BME280;19905;53.370;-6.314;2023-09-19T09:27:07;99088.44;;;16.56;100.00
29935;BME280;19905;53.370;-6.314;2023-09-19T09:29:47;99106.22;;;16.49;100.00
29935;BME280;19905;53.370;-6.314;2023-09-19T09:32:20;99130.22;;;16.49;100.00
29935;BME280;19905;53.370;-6.314;2023-09-19T09:34:53;99110.50;;;16.43;100.00
29935;BME280;19905;53.370;-6.314;2023-09-19T09:37:26;99102.75;;;16.48;100.00
29935;BME280;19905;53.370;-6.314;2023-09-19T09:40:00;99105.03;;;16.51;100.00
29935;BME280;19905;53.370;-6.314;2023-09-19T09:42:48;99103.25;;;16.59;100.00
29935;BME280;19905;53.370;-6.314;2023-09-19T09:45:20;99096.09;;;16.66;100.00
29935;BME280;19905;53.370;-6.314;2023-09-19T09:47:55;99094.34;;;16.80;100.00
29935;BME280;19905;53.370;-6.314;2023-09-19T09:50:28;99114.31;;;16.90;100.00
29935;BME280;19905;53.370;-6.314;2023-09-19T09:53:21;99082.94;;;16.92;100.00
29935;BME280;19905;53.370;-6.314;2023-09-19T09:56:01;99095.69;;;16.97;100.00
29935;BME280;19905;53.370;-6.314;2023-09-19T09:58:36;99114.19;;;17.05;100.00
29935;BME280;19905;53.370;-6.314;2023-09-19T10:01:05;99114.38;;;17.03;100.00
29935;BME280;19905;53.370;-6.314;2023-09-19T10:03:38;99124.22;;;17.03;100.00
29935;BME280;19905;53.370;-6.314;2023-09-19T10:06:12;99097.97;;;17.00;100.00
29935;BME280;19905;53.370;-6.314;2023-09-19T10:08:58;99098.81;;;17.07;100.00
29935;BME280;19905;53.370;-6.314;2023-09-19T10:11:33;99108.44;;;17.08;100.00
29935;BME280;19905;53.370;-6.314;2023-09-19T10:14:06;99128.41;;;17.19;100.00
29935;BME280;19905;53.370;-6.314;2023-09-19T10:16:40;99105.59;;;17.10;100.00
29935;BME280;19905;53.370;-6.314;2023-09-19T10:19:16;99126.94;;;17.10;100.00
29935;BME280;19905;53.370;-6.314;2023-09-19T10:21:54;99105.81;;;17.15;100.00
29935;BME280;19905;53.370;-6.314;2023-09-19T10:24:26;99102.72;;;17.18;100.00
29935;BME280;19905;53.370;-6.314;2023-09-19T10:26:57;99112.19;;;17.14;100.00
29935;BME280;19905;53.370;-6.314;2023-09-19T10:29:28;99114.84;;;17.14;100.00
29935;BME280;19905;53.370;-6.314;2023-09-19T10:31:58;99114.00;;;17.13;100.00
29935;BME280;19905;53.370;-6.314;2023-09-19T10:34:29;99123.09;;;17.25;100.00
29935;BME280;19905;53.370;-6.314;2023-09-19T10:37:01;99108.94;;;17.32;100.00
29935;BME280;19905;53.370;-6.314;2023-09-19T10:39:33;99101.03;;;17.51;100.00
29935;BME280;19905;53.370;-6.314;2023-09-19T10:42:03;99068.56;;;17.48;100.00
29935;BME280;19905;53.370;-6.314;2023-09-19T10:44:38;99084.56;;;17.41;100.00
29935;BME280;19905;53.370;-6.314;2023-09-19T10:47:07;99098.09;;;17.40;100.00
29935;BME280;19905;53.370;-6.314;2023-09-19T10:49:43;99073.47;;;17.44;100.00
29935;BME280;19905;53.370;-6.314;2023-09-19T10:52:15;99106.09;;;17.33;100.00
29935;BME280;19905;53.370;-6.314;2023-09-19T10:54:48;99086.78;;;17.31;100.00
29935;BME280;19905;53.370;-6.314;2023-09-19T10:57:20;99120.03;;;17.28;100.00
29935;BME280;19905;53.370;-6.314;2023-09-19T11:00:06;99113.41;;;17.11;100.00
29935;BME280;19905;53.370;-6.314;2023-09-19T11:03:17;99127.47;;;16.98;100.00
29935;BME280;19905;53.370;-6.314;2023-09-19T11:06:04;99130.72;;;16.87;100.00
29935;BME280;19905;53.370;-6.314;2023-09-19T11:08:56;99142.41;;;16.86;100.00
29935;BME280;19905;53.370;-6.314;2023-09-19T11:11:40;99131.31;;;16.89;100.00
29935;BME280;19905;53.370;-6.314;2023-09-19T11:14:16;99152.50;;;16.91;100.00
29935;BME280;19905;53.370;-6.314;2023-09-19T11:20:24;99146.56;;;16.95;100.00
29935;BME280;19905;53.370;-6.314;2023-09-19T11:23:22;99165.84;;;16.97;100.00
29935;BME280;19905;53.370;-6.314;2023-09-19T11:25:52;99130.38;;;17.03;100.00
29935;BME280;19905;53.370;-6.314;2023-09-19T11:28:34;99133.28;;;17.09;100.00
29935;BME280;19905;53.370;-6.314;2023-09-19T11:34:41;99130.44;;;17.17;100.00
29935;BME280;19905;53.370;-6.314;2023-09-19T11:40:16;99117.56;;;17.27;100.00
29935;BME280;19905;53.370;-6.314;2023-09-19T11:42:46;99143.63;;;17.32;100.00
29935;BME280;19905;53.370;-6.314;2023-09-19T11:48:32;99134.69;;;17.52;100.00
29935;BME280;19905;53.370;-6.314;2023-09-19T11:51:13;99102.91;;;17.64;100.00
29935;BME280;19905;53.370;-6.314;2023-09-19T11:53:54;99096.38;;;17.80;100.00
29935;BME280;19905;53.370;-6.314;2023-09-19T11:56:26;99086.53;;;18.00;100.00
29935;BME280;19905;53.370;-6.314;2023-09-19T11:58:58;99081.19;;;18.07;100.00
29935;BME280;19905;53.370;-6.314;2023-09-19T12:01:30;99085.31;;;18.03;100.00
29935;BME280;19905;53.370;-6.314;2023-09-19T12:04:01;99085.94;;;18.12;100.00
29935;BME280;19905;53.370;-6.314;2023-09-19T12:06:32;99062.69;;;18.19;100.00
29935;BME280;19905;53.370;-6.314;2023-09-19T12:09:00;99032.06;;;18.28;100.00
29935;BME280;19905;53.370;-6.314;2023-09-19T12:11:41;99097.22;;;18.27;100.00
29935;BME280;19905;53.370;-6.314;2023-09-19T12:14:11;99040.63;;;18.57;100.00
29935;BME280;19905;53.370;-6.314;2023-09-19T12:16:40;99013.84;;;18.76;100.00
29935;BME280;19905;53.370;-6.314;2023-09-19T12:19:23;99037.94;;;18.76;100.00
29935;BME280;19905;53.370;-6.314;2023-09-19T12:21:59;99026.44;;;18.69;100.00
29935;BME280;19905;53.370;-6.314;2023-09-19T12:24:32;99037.16;;;18.56;100.00
29935;BME280;19905;53.370;-6.314;2023-09-19T12:27:06;99047.84;;;18.49;100.00
29935;BME280;19905;53.370;-6.314;2023-09-19T12:29:43;99033.88;;;18.27;100.00
29935;BME280;19905;53.370;-6.314;2023-09-19T12:32:12;99048.72;;;18.10;100.00
29935;BME280;19905;53.370;-6.314;2023-09-19T12:34:51;99064.34;;;18.07;100.00
29935;BME280;19905;53.370;-6.314;2023-09-19T12:37:22;99072.34;;;18.00;100.00
29935;BME280;19905;53.370;-6.314;2023-09-19T12:40:05;99078.72;;;17.86;100.00
29935;BME280;19905;53.370;-6.314;2023-09-19T12:42:47;99085.69;;;17.73;100.00
29935;BME280;19905;53.370;-6.314;2023-09-19T12:45:16;99105.44;;;17.79;100.00
29935;BME280;19905;53.370;-6.314;2023-09-19T12:48:18;99109.72;;;17.87;100.00
29935;BME280;19905;53.370;-6.314;2023-09-19T12:51:00;99083.47;;;17.97;100.00
29935;BME280;19905;53.370;-6.314;2023-09-19T12:53:34;99083.44;;;18.17;100.00
29935;BME280;19905;53.370;-6.314;2023-09-19T12:56:09;99076.28;;;18.24;100.00
29935;BME280;19905;53.370;-6.314;2023-09-19T12:58:54;99087.97;;;18.29;100.00
29935;BME280;19905;53.370;-6.314;2023-09-19T13:01:24;99148.44;;;18.24;100.00
29935;BME280;19905;53.370;-6.314;2023-09-19T13:04:12;99079.75;;;17.98;100.00
29935;BME280;19905;53.370;-6.314;2023-09-19T13:06:46;99095.97;;;17.83;100.00
29935;BME280;19905;53.370;-6.314;2023-09-19T13:09:17;99116.66;;;17.68;100.00
29935;BME280;19905;53.370;-6.314;2023-09-19T13:11:48;99109.28;;;17.70;100.00
29935;BME280;19905;53.370;-6.314;2023-09-19T13:14:20;99127.34;;;17.68;100.00
29935;BME280;19905;53.370;-6.314;2023-09-19T13:16:58;99139.50;;;17.77;100.00
29935;BME280;19905;53.370;-6.314;2023-09-19T13:19:41;99141.28;;;17.63;100.00
29935;BME280;19905;53.370;-6.314;2023-09-19T13:22:38;99146.84;;;17.68;100.00